createdAt,value
2022-12-31T00:00:32.844Z,183.33
2022-12-31T00:03:00.154Z,187.47
2022-12-31T00:05:27.496Z,198.60
2022-12-31T00:07:54.735Z,194.77
2022-12-31T00:10:21.906Z,195.23
2022-12-31T00:12:49.057Z,185.80
2022-12-31T00:15:16.355Z,183.30
2022-12-31T00:17:43.458Z,175.53
2022-12-31T00:20:10.919Z,184.47
2022-12-31T00:22:41.514Z,179.67
2022-12-31T00:25:09.106Z,193.27
2022-12-31T00:27:36.567Z,194.57
2022-12-31T00:30:05.020Z,190.10
2022-12-31T00:32:32.170Z,194.50
2022-12-31T00:34:59.314Z,203.03
2022-12-31T00:37:26.415Z,197.07
2022-12-31T00:39:53.789Z,193.30
2022-12-31T00:42:20.968Z,188.43
2022-12-31T00:44:48.114Z,199.37
2022-12-31T00:47:15.204Z,196.63
2022-12-31T00:49:42.332Z,187.50
2022-12-31T00:52:09.864Z,185.47
2022-12-31T00:54:37.127Z,190.07
2022-12-31T00:57:04.719Z,182.90
2022-12-31T00:59:35.371Z,187.13
2022-12-31T01:02:02.998Z,182.17
2022-12-31T01:04:30.926Z,186.13
2022-12-31T01:06:58.318Z,187.53
2022-12-31T01:09:25.588Z,193.60
2022-12-31T01:11:52.999Z,178.90
2022-12-31T01:14:20.815Z,175.43
2022-12-31T01:16:53.356Z,179.33
2022-12-31T01:19:29.953Z,177.90
2022-12-31T01:21:57.713Z,189.13
2022-12-31T01:24:26.094Z,179.00
2022-12-31T01:26:56.331Z,175.33
2022-12-31T01:29:27.245Z,180.93
2022-12-31T01:31:57.430Z,178.73
2022-12-31T01:34:24.893Z,169.10
2022-12-31T01:36:53.673Z,172.73
2022-12-31T01:39:21.402Z,174.30
2022-12-31T01:41:48.999Z,173.20
2022-12-31T01:44:25.710Z,172.57
2022-12-31T01:47:07.321Z,170.13
2022-12-31T01:49:42.953Z,167.07
2022-12-31T01:52:15.822Z,162.43
2022-12-31T01:55:06.109Z,164.07
2022-12-31T01:57:34.067Z,158.23
2022-12-31T02:00:02.237Z,159.23
2022-12-31T02:02:32.453Z,170.57
2022-12-31T02:05:03.666Z,160.43
2022-12-31T02:07:31.117Z,162.70
2022-12-31T02:09:58.985Z,157.80
2022-12-31T02:12:26.338Z,167.90
2022-12-31T02:14:54.903Z,160.57
2022-12-31T02:17:27.898Z,156.70
2022-12-31T02:20:00.841Z,156.57
2022-12-31T02:22:43.404Z,157.80
2022-12-31T02:25:10.842Z,156.80
2022-12-31T02:28:08.768Z,150.40
2022-12-31T02:30:37.479Z,153.67
2022-12-31T02:33:17.450Z,157.00
2022-12-31T02:35:59.188Z,157.13
2022-12-31T02:38:32.763Z,150.27
2022-12-31T02:41:00.827Z,154.90
2022-12-31T02:43:28.385Z,146.97
2022-12-31T02:46:23.825Z,154.47
2022-12-31T02:49:23.218Z,152.97
2022-12-31T02:52:12.612Z,152.73
2022-12-31T02:55:11.084Z,149.50
2022-12-31T02:58:16.217Z,142.03
2022-12-31T03:01:09.354Z,147.43
2022-12-31T03:03:37.787Z,140.50
2022-12-31T03:06:07.912Z,134.13
2022-12-31T03:08:54.971Z,147.77
2022-12-31T03:11:40.872Z,140.33
2022-12-31T03:14:07.868Z,148.87
2022-12-31T03:16:35.083Z,154.47
2022-12-31T03:19:20.881Z,145.13
2022-12-31T03:22:06.910Z,145.17
2022-12-31T03:24:52.551Z,148.93
2022-12-31T03:27:19.512Z,149.00
2022-12-31T03:29:46.833Z,152.07
2022-12-31T03:32:14.022Z,138.47
2022-12-31T03:34:41.009Z,139.43
2022-12-31T03:37:08.139Z,161.30
2022-12-31T03:39:35.179Z,145.87
2022-12-31T03:42:02.163Z,149.23
2022-12-31T03:44:29.128Z,157.70
2022-12-31T03:46:56.237Z,155.50
2022-12-31T03:49:23.262Z,153.67
2022-12-31T03:51:50.405Z,154.00
2022-12-31T03:54:17.802Z,152.27
2022-12-31T03:56:44.910Z,159.77
2022-12-31T03:59:12.056Z,160.80
2022-12-31T04:01:39.253Z,159.63
2022-12-31T04:04:06.329Z,151.03
2022-12-31T04:06:33.425Z,158.33
2022-12-31T04:09:00.409Z,157.27
2022-12-31T04:11:27.529Z,149.60
2022-12-31T04:13:54.451Z,147.47
2022-12-31T04:16:21.526Z,144.43
2022-12-31T04:18:48.659Z,145.63
2022-12-31T04:21:15.876Z,142.77
2022-12-31T04:23:42.838Z,150.93
2022-12-31T04:26:09.832Z,156.90
2022-12-31T04:28:37.130Z,149.00
2022-12-31T04:31:04.386Z,152.00
2022-12-31T04:33:31.414Z,146.80
2022-12-31T04:36:06.332Z,151.97
2022-12-31T04:38:34.373Z,143.67
2022-12-31T04:41:19.853Z,154.03
2022-12-31T04:43:49.818Z,148.97
2022-12-31T04:46:19.213Z,147.50
2022-12-31T04:48:46.845Z,154.37
2022-12-31T04:51:14.919Z,152.00
2022-12-31T04:53:42.093Z,150.10
2022-12-31T04:56:10.235Z,146.80
2022-12-31T04:58:38.511Z,141.83
2022-12-31T05:01:07.182Z,138.70
2022-12-31T05:03:35.454Z,142.43
2022-12-31T05:06:05.594Z,148.87
2022-12-31T05:08:32.956Z,151.17
2022-12-31T05:11:01.011Z,139.90
2022-12-31T05:13:32.908Z,142.73
2022-12-31T05:16:00.995Z,144.80
2022-12-31T05:18:28.237Z,129.03
2022-12-31T05:20:55.373Z,126.37
2022-12-31T05:23:24.584Z,117.33
2022-12-31T05:25:52.261Z,116.43
2022-12-31T05:28:19.533Z,107.77
2022-12-31T05:30:50.095Z,105.37
2022-12-31T05:33:18.869Z,107.03
2022-12-31T05:35:46.398Z,97.30
2022-12-31T05:38:13.511Z,103.30
2022-12-31T05:40:40.715Z,99.57
2022-12-31T05:43:07.915Z,99.47
2022-12-31T05:45:34.987Z,95.67
2022-12-31T05:48:02.077Z,90.10
2022-12-31T05:50:29.238Z,94.63
2022-12-31T05:52:56.876Z,93.47
2022-12-31T05:55:24.286Z,99.93
2022-12-31T05:57:51.383Z,100.77
2022-12-31T06:00:18.779Z,101.37
2022-12-31T06:02:46.001Z,101.57
2022-12-31T06:05:13.077Z,83.77
2022-12-31T06:07:40.223Z,71.13
2022-12-31T06:10:07.677Z,68.90
2022-12-31T06:12:35.824Z,66.17
2022-12-31T06:15:04.074Z,61.90
2022-12-31T06:17:32.556Z,57.20
2022-12-31T06:20:00.033Z,52.47
2022-12-31T06:22:27.219Z,48.73
2022-12-31T06:24:54.493Z,50.03
2022-12-31T06:27:21.585Z,61.13
2022-12-31T06:29:48.578Z,78.73
2022-12-31T06:32:16.246Z,86.50
2022-12-31T06:34:43.309Z,79.90
2022-12-31T06:37:10.509Z,78.67
2022-12-31T06:39:37.569Z,68.27
2022-12-31T06:42:04.981Z,56.30
2022-12-31T06:44:32.007Z,55.30
2022-12-31T06:46:59.109Z,55.27
2022-12-31T06:49:26.156Z,46.87
2022-12-31T06:51:53.205Z,38.85
2022-12-31T06:54:20.279Z,37.47
2022-12-31T06:56:47.577Z,35.70
2022-12-31T06:59:25.213Z,35.38
2022-12-31T07:02:01.193Z,30.77
2022-12-31T07:04:40.369Z,27.77
2022-12-31T07:07:26.259Z,25.52
2022-12-31T07:10:29.485Z,27.77
2022-12-31T07:13:02.746Z,20.08
2022-12-31T07:15:54.195Z,21.05
2022-12-31T07:18:53.282Z,20.20
2022-12-31T07:21:35.130Z,17.20
2022-12-31T07:24:03.300Z,15.48
2022-12-31T07:26:56.929Z,13.80
2022-12-31T07:29:39.365Z,11.43
2022-12-31T07:32:15.424Z,8.98
2022-12-31T07:35:01.157Z,8.05
2022-12-31T07:37:37.291Z,9.35
2022-12-31T07:40:12.574Z,7.53
2022-12-31T07:42:58.335Z,7.88
2022-12-31T07:45:45.912Z,6.70
2022-12-31T07:48:24.190Z,5.57
2022-12-31T07:50:54.551Z,6.15
2022-12-31T07:53:22.882Z,6.28
2022-12-31T07:56:00.928Z,5.63
2022-12-31T07:58:40.525Z,5.20
2022-12-31T08:01:13.466Z,4.45
2022-12-31T08:04:05.236Z,4.72
2022-12-31T08:06:51.042Z,6.95
2022-12-31T08:09:44.347Z,7.80
2022-12-31T08:12:11.571Z,5.35
2022-12-31T08:14:44.533Z,5.97
2022-12-31T08:17:16.182Z,6.60
2022-12-31T08:19:43.665Z,3.70
2022-12-31T08:22:25.833Z,5.93
2022-12-31T08:25:32.716Z,5.43
2022-12-31T08:27:59.808Z,4.40
2022-12-31T08:30:49.170Z,4.88
2022-12-31T08:33:47.937Z,7.15
2022-12-31T08:36:53.925Z,5.93
2022-12-31T08:39:54.250Z,4.47
2022-12-31T08:42:27.672Z,3.85
2022-12-31T08:45:35.950Z,4.28
2022-12-31T08:48:35.384Z,3.58
2022-12-31T08:51:02.821Z,3.97
2022-12-31T08:53:30.230Z,4.30
2022-12-31T08:56:07.408Z,3.28
2022-12-31T08:58:51.531Z,3.30
2022-12-31T09:01:22.284Z,5.28
2022-12-31T09:04:11.693Z,4.90
2022-12-31T09:06:48.549Z,6.03
2022-12-31T09:10:09.639Z,5.85
2022-12-31T09:12:46.939Z,3.95
2022-12-31T09:15:18.201Z,3.90
2022-12-31T09:17:50.612Z,4.82
2022-12-31T09:20:42.432Z,4.45
2022-12-31T09:23:12.270Z,4.32
2022-12-31T09:26:11.381Z,4.25
2022-12-31T09:29:01.724Z,7.10
2022-12-31T09:31:39.319Z,3.45
2022-12-31T09:34:32.648Z,4.68
2022-12-31T09:37:16.501Z,3.10
2022-12-31T09:39:46.483Z,6.03
2022-12-31T09:42:26.782Z,3.72
2022-12-31T09:45:11.063Z,4.00
2022-12-31T09:47:56.206Z,3.83
2022-12-31T09:50:32.296Z,4.03
2022-12-31T09:53:16.696Z,5.40
2022-12-31T09:55:47.064Z,3.63
2022-12-31T09:58:35.653Z,3.45
2022-12-31T10:01:07.669Z,4.03
2022-12-31T10:03:53.496Z,3.88
2022-12-31T10:06:41.203Z,5.35
2022-12-31T10:09:23.309Z,3.85
2022-12-31T10:12:23.586Z,3.55
2022-12-31T10:15:18.947Z,4.32
2022-12-31T10:18:07.085Z,5.32
2022-12-31T10:20:50.387Z,4.35
2022-12-31T10:23:39.389Z,3.85
2022-12-31T10:26:26.620Z,5.60
2022-12-31T10:29:06.231Z,4.88
2022-12-31T10:31:40.523Z,3.72
2022-12-31T10:34:31.070Z,5.60
2022-12-31T10:37:15.151Z,4.35
2022-12-31T10:40:06.625Z,3.35
2022-12-31T10:42:42.660Z,4.00
2022-12-31T10:45:39.944Z,3.55
2022-12-31T10:49:00.620Z,3.67
2022-12-31T10:51:30.684Z,4.28
2022-12-31T10:54:16.571Z,3.97
2022-12-31T10:57:07.455Z,3.75
2022-12-31T10:59:49.229Z,3.58
2022-12-31T11:02:45.524Z,3.75
2022-12-31T11:05:21.625Z,4.28
2022-12-31T11:07:56.484Z,4.53
2022-12-31T11:10:35.149Z,6.03
2022-12-31T11:13:24.748Z,3.15
2022-12-31T11:15:54.396Z,3.90
2022-12-31T11:18:42.426Z,3.03
2022-12-31T11:21:41.779Z,5.90
2022-12-31T11:24:15.005Z,5.50
2022-12-31T11:26:56.393Z,3.33
2022-12-31T11:29:43.643Z,3.65
2022-12-31T11:32:19.154Z,3.13
2022-12-31T11:34:48.697Z,4.82
2022-12-31T11:37:43.236Z,3.08
2022-12-31T11:40:31.636Z,3.42
2022-12-31T11:43:35.683Z,2.67
2022-12-31T11:46:09.092Z,4.57
2022-12-31T11:48:47.514Z,2.28
2022-12-31T11:51:33.211Z,3.20
2022-12-31T11:54:18.065Z,3.13
2022-12-31T11:56:54.071Z,2.90
2022-12-31T11:59:22.089Z,4.20
2022-12-31T12:02:22.636Z,3.20
2022-12-31T12:04:51.181Z,3.78
2022-12-31T12:07:18.787Z,3.05
2022-12-31T12:09:46.840Z,3.25
2022-12-31T12:12:13.985Z,3.40
2022-12-31T12:14:43.621Z,3.33
2022-12-31T12:17:20.097Z,4.53
2022-12-31T12:19:55.491Z,5.95
2022-12-31T12:22:26.808Z,5.55
2022-12-31T12:25:07.513Z,5.35
2022-12-31T12:27:36.342Z,3.85
2022-12-31T12:30:21.812Z,4.18
2022-12-31T12:33:00.037Z,4.45
2022-12-31T12:35:32.582Z,4.20
2022-12-31T12:38:08.365Z,5.93
2022-12-31T12:40:35.860Z,4.70
2022-12-31T12:43:03.661Z,3.95
2022-12-31T12:45:51.636Z,5.43
2022-12-31T12:48:43.730Z,5.57
2022-12-31T12:51:23.195Z,4.88
2022-12-31T12:54:32.881Z,5.30
2022-12-31T12:56:59.920Z,4.95
2022-12-31T12:59:45.523Z,4.90
2022-12-31T13:02:27.604Z,5.68
2022-12-31T13:05:24.380Z,4.78
2022-12-31T13:08:09.454Z,4.80
2022-12-31T13:10:54.565Z,5.60
2022-12-31T13:13:28.719Z,6.68
2022-12-31T13:16:22.408Z,4.85
2022-12-31T13:19:01.376Z,5.60
2022-12-31T13:21:45.108Z,6.40
2022-12-31T13:24:30.192Z,5.00
2022-12-31T13:27:15.703Z,6.78
2022-12-31T13:29:46.265Z,4.47
2022-12-31T13:32:20.204Z,5.30
2022-12-31T13:34:52.012Z,6.63
2022-12-31T13:37:27.643Z,5.30
2022-12-31T13:40:05.458Z,4.97
2022-12-31T13:42:42.551Z,5.47
2022-12-31T13:45:24.823Z,8.23
2022-12-31T13:48:00.735Z,5.13
2022-12-31T13:50:43.751Z,6.45
2022-12-31T13:53:42.667Z,5.55
2022-12-31T13:56:24.276Z,8.77
2022-12-31T13:59:06.236Z,6.65
2022-12-31T14:01:37.241Z,5.90
2022-12-31T14:04:25.366Z,6.05
2022-12-31T14:07:21.516Z,6.88
2022-12-31T14:09:50.047Z,6.65
2022-12-31T14:12:35.271Z,6.93
2022-12-31T14:15:30.539Z,6.80
2022-12-31T14:18:07.751Z,8.65
2022-12-31T14:20:49.006Z,7.32
2022-12-31T14:23:34.357Z,7.40
2022-12-31T14:26:35.933Z,9.32
2022-12-31T14:29:11.928Z,8.88
2022-12-31T14:31:51.917Z,7.53
2022-12-31T14:34:30.631Z,6.47
2022-12-31T14:37:13.257Z,7.80
2022-12-31T14:39:45.932Z,7.93
2022-12-31T14:42:12.945Z,11.00
2022-12-31T14:44:45.390Z,11.05
2022-12-31T14:47:23.852Z,8.15
2022-12-31T14:50:06.233Z,11.63
2022-12-31T14:52:36.145Z,8.45
2022-12-31T14:55:09.125Z,8.55
2022-12-31T14:58:09.733Z,9.73
2022-12-31T15:00:26.524Z,9.68
2022-12-31T15:03:01.681Z,9.15
2022-12-31T15:05:37.499Z,9.25
2022-12-31T15:08:41.485Z,9.25
2022-12-31T15:11:23.779Z,9.32
2022-12-31T15:13:59.909Z,10.45
2022-12-31T15:16:42.029Z,10.43
2022-12-31T15:19:46.479Z,8.48
2022-12-31T15:22:52.473Z,10.10
2022-12-31T15:25:41.189Z,8.85
2022-12-31T15:28:23.436Z,8.18
2022-12-31T15:30:51.739Z,10.93
2022-12-31T15:33:33.661Z,9.60
2022-12-31T15:36:14.797Z,12.25
2022-12-31T15:38:42.774Z,12.18
2022-12-31T15:41:24.575Z,11.63
2022-12-31T15:44:19.251Z,12.73
2022-12-31T15:46:51.608Z,11.02
2022-12-31T15:49:23.401Z,11.35
2022-12-31T15:52:01.246Z,11.40
2022-12-31T15:54:44.426Z,12.57
2022-12-31T15:57:19.670Z,11.15
2022-12-31T15:59:47.559Z,11.40
2022-12-31T16:02:32.727Z,12.02
2022-12-31T16:04:59.927Z,10.82
2022-12-31T16:07:28.798Z,12.57
2022-12-31T16:09:59.658Z,13.73
2022-12-31T16:12:33.116Z,12.95
2022-12-31T16:15:02.644Z,12.80
2022-12-31T16:17:30.948Z,13.55
2022-12-31T16:19:59.644Z,16.83
2022-12-31T16:22:38.372Z,16.83
2022-12-31T16:25:30.811Z,17.10
2022-12-31T16:27:58.849Z,22.95
2022-12-31T16:30:31.402Z,21.98
2022-12-31T16:33:03.439Z,17.55
2022-12-31T16:35:30.489Z,15.13
2022-12-31T16:38:11.688Z,15.30
2022-12-31T16:40:40.668Z,15.00
2022-12-31T16:43:36.947Z,16.48
2022-12-31T16:46:27.117Z,13.82
2022-12-31T16:49:02.757Z,14.63
2022-12-31T16:51:32.541Z,15.00
2022-12-31T16:54:02.361Z,14.15
2022-12-31T16:56:39.273Z,13.68
2022-12-31T16:59:24.164Z,14.18
2022-12-31T17:01:56.101Z,13.05
2022-12-31T17:04:24.640Z,13.70
2022-12-31T17:06:51.818Z,14.18
2022-12-31T17:09:22.836Z,14.90
2022-12-31T17:11:52.822Z,17.55
2022-12-31T17:14:23.373Z,16.65
2022-12-31T17:17:01.446Z,13.00
2022-12-31T17:19:34.828Z,14.85
2022-12-31T17:22:03.785Z,14.48
2022-12-31T17:24:31.361Z,13.70
2022-12-31T17:27:05.197Z,12.32
2022-12-31T17:29:33.445Z,12.07
2022-12-31T17:32:06.808Z,11.50
2022-12-31T17:34:40.188Z,10.70
2022-12-31T17:37:10.459Z,11.07
2022-12-31T17:39:54.587Z,12.30
2022-12-31T17:42:39.693Z,12.10
2022-12-31T17:45:20.131Z,13.15
2022-12-31T17:47:51.163Z,12.35
2022-12-31T17:50:26.888Z,13.55
2022-12-31T17:53:11.745Z,11.32
2022-12-31T17:55:39.493Z,11.65
2022-12-31T17:58:07.269Z,13.68
2022-12-31T18:00:36.853Z,13.05
2022-12-31T18:03:04.108Z,13.25
2022-12-31T18:05:31.192Z,12.65
2022-12-31T18:07:58.448Z,13.52
2022-12-31T18:10:27.850Z,15.55
2022-12-31T18:12:55.240Z,13.75
2022-12-31T18:15:24.478Z,15.15
2022-12-31T18:17:52.022Z,13.57
2022-12-31T18:20:19.328Z,13.18
2022-12-31T18:22:46.385Z,13.52
2022-12-31T18:25:23.753Z,12.18
2022-12-31T18:27:51.724Z,12.20
2022-12-31T18:30:19.462Z,11.63
2022-12-31T18:32:47.299Z,12.23
2022-12-31T18:35:40.704Z,13.88
2022-12-31T18:38:06.495Z,13.50
2022-12-31T18:40:34.073Z,12.23
2022-12-31T18:43:04.881Z,13.10
2022-12-31T18:45:32.529Z,14.35
2022-12-31T18:47:59.575Z,12.30
2022-12-31T18:50:26.581Z,13.15
2022-12-31T18:52:53.641Z,12.85
2022-12-31T18:55:23.049Z,12.25
2022-12-31T18:57:50.408Z,13.00
2022-12-31T19:00:17.686Z,10.35
2022-12-31T19:02:44.830Z,11.30
2022-12-31T19:05:21.198Z,11.02
2022-12-31T19:07:48.255Z,12.05
2022-12-31T19:10:16.385Z,9.95
2022-12-31T19:12:44.101Z,10.20
2022-12-31T19:15:29.756Z,10.27
2022-12-31T19:17:57.385Z,10.68
2022-12-31T19:20:24.547Z,8.75
2022-12-31T19:22:51.936Z,9.40
2022-12-31T19:25:25.337Z,9.20
2022-12-31T19:27:52.562Z,10.30
2022-12-31T19:30:26.856Z,12.88
2022-12-31T19:32:54.330Z,10.90
2022-12-31T19:35:22.470Z,12.02
2022-12-31T19:37:51.229Z,12.52
2022-12-31T19:40:24.964Z,17.67
2022-12-31T19:42:56.300Z,14.20
2022-12-31T19:45:28.430Z,11.52
2022-12-31T19:47:57.228Z,11.35
2022-12-31T19:50:27.246Z,9.95
2022-12-31T19:52:57.459Z,14.02
2022-12-31T19:55:26.469Z,11.63
2022-12-31T19:57:54.324Z,9.95
2022-12-31T20:00:22.050Z,10.32
2022-12-31T20:02:49.635Z,10.63
2022-12-31T20:05:17.240Z,10.75
2022-12-31T20:07:44.337Z,12.45
2022-12-31T20:10:11.901Z,11.00
2022-12-31T20:12:44.170Z,10.38
2022-12-31T20:15:12.019Z,12.45
2022-12-31T20:17:39.093Z,12.00
2022-12-31T20:20:06.928Z,14.38
2022-12-31T20:22:34.266Z,12.48
2022-12-31T20:25:01.462Z,13.40
2022-12-31T20:27:28.621Z,11.88
2022-12-31T20:29:55.681Z,12.50
2022-12-31T20:32:22.754Z,12.18
2022-12-31T20:34:49.865Z,10.98
2022-12-31T20:37:16.906Z,12.73
2022-12-31T20:39:44.056Z,14.43
2022-12-31T20:42:11.239Z,13.38
2022-12-31T20:44:38.467Z,13.70
2022-12-31T20:47:05.740Z,11.70
2022-12-31T20:50:09.073Z,11.20
2022-12-31T20:52:20.075Z,11.43
2022-12-31T20:54:47.063Z,10.10
2022-12-31T20:57:14.148Z,11.57
2022-12-31T20:59:41.352Z,9.00
2022-12-31T21:02:21.285Z,10.95
2022-12-31T21:04:48.862Z,9.80
2022-12-31T21:07:15.988Z,9.07
2022-12-31T21:09:43.150Z,9.27
2022-12-31T21:12:30.300Z,9.15
2022-12-31T21:14:57.447Z,8.65
2022-12-31T21:17:24.748Z,10.02
2022-12-31T21:19:51.938Z,8.93
2022-12-31T21:22:18.977Z,9.70
2022-12-31T21:24:46.211Z,10.20
2022-12-31T21:27:13.396Z,9.82
2022-12-31T21:30:02.015Z,9.32
2022-12-31T21:32:27.543Z,6.90
2022-12-31T21:35:31.203Z,5.82
2022-12-31T21:37:57.891Z,7.57
2022-12-31T21:40:27.858Z,7.93
2022-12-31T21:42:55.074Z,7.68
2022-12-31T21:45:22.242Z,8.23
2022-12-31T21:48:07.745Z,7.85
2022-12-31T21:50:35.127Z,7.18
2022-12-31T21:53:02.249Z,6.72
2022-12-31T21:55:47.822Z,8.02
2022-12-31T21:58:32.025Z,6.93
2022-12-31T22:01:18.492Z,8.70
2022-12-31T22:03:45.868Z,8.40
2022-12-31T22:06:20.556Z,10.85
2022-12-31T22:08:50.814Z,6.22
2022-12-31T22:11:20.400Z,8.68
2022-12-31T22:13:49.230Z,7.38
2022-12-31T22:16:17.253Z,7.90
2022-12-31T22:18:44.512Z,7.38
2022-12-31T22:21:20.738Z,5.82
2022-12-31T22:23:54.067Z,8.05
2022-12-31T22:26:24.233Z,5.78
2022-12-31T22:28:52.374Z,6.88
2022-12-31T22:31:22.757Z,7.22
2022-12-31T22:33:50.420Z,7.00
2022-12-31T22:36:20.086Z,6.55
2022-12-31T22:38:48.368Z,7.65
2022-12-31T22:41:20.884Z,7.65
2022-12-31T22:44:00.246Z,18.65
2022-12-31T22:46:29.682Z,11.05
2022-12-31T22:48:58.535Z,9.25
2022-12-31T22:51:30.511Z,6.93
2022-12-31T22:54:14.382Z,5.78
2022-12-31T22:56:41.622Z,5.72
2022-12-31T22:59:09.414Z,5.22
2022-12-31T23:01:36.835Z,5.93
2022-12-31T23:04:04.662Z,20.60
2022-12-31T23:06:32.491Z,19.77
2022-12-31T23:09:18.188Z,34.47
2022-12-31T23:11:45.464Z,34.28
2022-12-31T23:14:35.941Z,35.33
2022-12-31T23:17:29.474Z,42.97
2022-12-31T23:20:18.182Z,34.80
2022-12-31T23:23:04.847Z,29.15
2022-12-31T23:25:33.565Z,29.05
2022-12-31T23:28:01.080Z,29.05
2022-12-31T23:30:28.441Z,20.20
2022-12-31T23:32:55.591Z,15.43
2022-12-31T23:35:22.770Z,12.18
2022-12-31T23:37:50.307Z,11.68
2022-12-31T23:40:21.515Z,10.60
2022-12-31T23:42:50.228Z,12.60
2022-12-31T23:45:17.393Z,10.05
2022-12-31T23:47:44.795Z,13.57
2022-12-31T23:50:11.759Z,11.35
2022-12-31T23:52:38.804Z,10.20
2022-12-31T23:55:06.150Z,9.07
2022-12-31T23:57:33.112Z,9.80
